Main page
METAR-TAF:

METAR-TAF

Airports :

Coleman Municipal Airport

Coleman, Texas, United States

latitude: 31-50-28N, longitude: 099-24-12W, elevation: 1696 ft

Current weather observation

The report was made 1 hour and 18 minutes ago, at 21:55 UTC
Wind 15 mph from the Southeast with gusts up to 22 mph
Temperature 82°F
Humidity 58%
Pressure 29.88 in. Hg
Visibility: 10 miles
Scattered clouds at a height of 7000 ft
Overcast at a height of 11000 ft

METAR: KCOM 202155Z AUTO 14013G19KT 10SM SCT070 OVC110 28/19 A2988 RMK AO2 T02790191

Time: 17:13 (23:13 UTC)


TAF: missing

Weather observations and forecasts of more than 4000 airports (METAR and TAF reports).

The available stations are represented by yellow and red dots on the map.

Hover mouse over dot to see the name of the station.

Then click to see weather observations and forecasts.

To change the map : click on the green buttons with a black cross to zoom in, on the green button with a dash to zoom out, or on the green arrows for adjacent maps.


METAR-TAF: